Terminal Aerodrome Forecast
Issued by NWS

Home | Current Version | Previous Version | Text Only | Print | Product List | Glossary On
Versions: 1 2 3 4 5 6 7 8 9 10 11 12 13 14 15 16 17 18 19 20 21
000
FTUS46 KMFR 210600 AAA
TAFOTH
TAF AMD
KOTH 210600Z 2106/2206 16010G16KT P6SM -SHRA SCT030 OVC040
     FM211300 18017G25KT P6SM -RA BKN025 OVC040
     FM211500 21018G28KT P6SM -RA BKN025 OVC040
     FM212000 24020G30KT P6SM -SHRA SCT025 BKN040 OVC050
     FM220000 21012G20KT P6SM VCSH BKN050
     FM220400 14008KT P6SM SCT060 BKN120=

USA.gov is the U.S. government's official web portal to all federal, state and local government web resources and services.